Aviation Digital Data Service (ADDS)

Output produced by METARs form (1821 UTC 19 April 2019)
found at http://www.aviationweather.gov/metar/data/
 
Forecast for: AGGK (KIRAKIRA , SB)
Text: TAF AGGK 191730Z 1918/2018 27012KT 9999 FEW018 SCT100
Forecast period: 1800 UTC 19 April 2019 to 1800 UTC 20 April 2019
Forecast type: FROM: standard forecast or significant change
Winds: from the W (270 degrees) at 14 MPH (12 knots; 6.2 m/s)
Visibility: 6 or more miles 10+ km)
Ceiling: at least 12,000 feet AGL
Clouds: few clouds at 1800 feet AGL
scattered clouds at 10000 feet AGL
Weather: no significant weather forecast for this period
Text: PROB40 INTER 1920/2004 5000 TSSH BKN015 FEW016CB
Forecast period: 2000 UTC 19 April 2019 to 0400 UTC 20 April 2019
Forecast type: TEMPORARY: The following changes expected for less than half the time period
Visibility: 3 miles (5 km)
Ceiling: 1500 feet AGL
Clouds: broken clouds at 1500 feet AGL
few clouds at 1600 feet AGL
Weather: SH TS  (showers, thunderstorm)